sensor_id;sensor_type;location;lat;lon;timestamp;temperature;humidity
35111;DHT22;21290;50.158;8.658;2023-07-29T00:01:11;18.10;99.90
35111;DHT22;21290;50.158;8.658;2023-07-29T00:03:38;18.10;99.90
35111;DHT22;21290;50.158;8.658;2023-07-29T00:06:05;18.10;99.90
35111;DHT22;21290;50.158;8.658;2023-07-29T00:08:31;18.10;99.90
35111;DHT22;21290;50.158;8.658;2023-07-29T00:10:58;18.20;99.90
35111;DHT22;21290;50.158;8.658;2023-07-29T00:13:25;18.20;99.90
35111;DHT22;21290;50.158;8.658;2023-07-29T00:15:54;18.20;99.90
35111;DHT22;21290;50.158;8.658;2023-07-29T00:18:22;18.20;99.90
35111;DHT22;21290;50.158;8.658;2023-07-29T00:20:50;18.20;99.90
35111;DHT22;21290;50.158;8.658;2023-07-29T00:23:17;18.20;99.90
35111;DHT22;21290;50.158;8.658;2023-07-29T00:25:45;18.20;99.90
35111;DHT22;21290;50.158;8.658;2023-07-29T00:28:12;18.20;99.90
35111;DHT22;21290;50.158;8.658;2023-07-29T00:30:39;18.20;99.90
35111;DHT22;21290;50.158;8.658;2023-07-29T00:33:06;18.20;99.90
35111;DHT22;21290;50.158;8.658;2023-07-29T00:35:33;18.20;99.90
35111;DHT22;21290;50.158;8.658;2023-07-29T00:37:59;18.20;99.90
35111;DHT22;21290;50.158;8.658;2023-07-29T00:40:28;18.20;99.90
35111;DHT22;21290;50.158;8.658;2023-07-29T00:42:55;18.20;99.90
35111;DHT22;21290;50.158;8.658;2023-07-29T00:45:23;18.20;99.90
35111;DHT22;21290;50.158;8.658;2023-07-29T00:47:51;18.20;99.90
35111;DHT22;21290;50.158;8.658;2023-07-29T00:50:18;18.20;99.90
35111;DHT22;21290;50.158;8.658;2023-07-29T00:52:44;18.20;99.90
35111;DHT22;21290;50.158;8.658;2023-07-29T00:55:11;18.20;99.90
35111;DHT22;21290;50.158;8.658;2023-07-29T00:57:38;18.20;99.90
35111;DHT22;21290;50.158;8.658;2023-07-29T01:00:07;18.10;99.90
35111;DHT22;21290;50.158;8.658;2023-07-29T01:02:35;18.10;99.90
35111;DHT22;21290;50.158;8.658;2023-07-29T01:05:02;18.20;99.90
35111;DHT22;21290;50.158;8.658;2023-07-29T01:12:58;18.20;99.90
35111;DHT22;21290;50.158;8.658;2023-07-29T01:15:49;18.20;99.90
35111;DHT22;21290;50.158;8.658;2023-07-29T01:18:29;18.20;99.90
35111;DHT22;21290;50.158;8.658;2023-07-29T01:20:59;18.20;99.90
35111;DHT22;21290;50.158;8.658;2023-07-29T01:23:33;18.20;99.90
35111;DHT22;21290;50.158;8.658;2023-07-29T01:26:00;18.30;99.90
35111;DHT22;21290;50.158;8.658;2023-07-29T01:28:27;18.30;99.90
35111;DHT22;21290;50.158;8.658;2023-07-29T01:31:10;18.30;99.90
35111;DHT22;21290;50.158;8.658;2023-07-29T01:33:44;18.30;99.90
35111;DHT22;21290;50.158;8.658;2023-07-29T01:36:15;18.30;99.90
35111;DHT22;21290;50.158;8.658;2023-07-29T01:38:45;18.40;99.90
35111;DHT22;21290;50.158;8.658;2023-07-29T01:41:13;18.40;99.90
35111;DHT22;21290;50.158;8.658;2023-07-29T01:43:40;18.40;99.90
35111;DHT22;21290;50.158;8.658;2023-07-29T01:46:11;18.40;99.90
35111;DHT22;21290;50.158;8.658;2023-07-29T01:48:38;18.30;99.90
35111;DHT22;21290;50.158;8.658;2023-07-29T01:51:06;18.40;99.90
35111;DHT22;21290;50.158;8.658;2023-07-29T01:53:33;18.40;99.90
35111;DHT22;21290;50.158;8.658;2023-07-29T01:55:59;18.30;99.90
35111;DHT22;21290;50.158;8.658;2023-07-29T01:58:26;18.30;99.90
35111;DHT22;21290;50.158;8.658;2023-07-29T02:00:53;18.30;99.90
35111;DHT22;21290;50.158;8.658;2023-07-29T02:03:19;18.30;99.90
35111;DHT22;21290;50.158;8.658;2023-07-29T02:05:46;18.30;99.90
35111;DHT22;21290;50.158;8.658;2023-07-29T02:08:13;18.20;99.90
35111;DHT22;21290;50.158;8.658;2023-07-29T02:10:40;18.30;99.90
35111;DHT22;21290;50.158;8.658;2023-07-29T02:13:07;18.30;99.90
35111;DHT22;21290;50.158;8.658;2023-07-29T02:15:34;18.30;99.90
35111;DHT22;21290;50.158;8.658;2023-07-29T02:18:00;18.30;99.90
35111;DHT22;21290;50.158;8.658;2023-07-29T02:20:28;18.30;99.90
35111;DHT22;21290;50.158;8.658;2023-07-29T02:22:55;18.30;99.90
35111;DHT22;21290;50.158;8.658;2023-07-29T02:25:21;18.30;99.90
35111;DHT22;21290;50.158;8.658;2023-07-29T02:27:48;18.30;99.90
35111;DHT22;21290;50.158;8.658;2023-07-29T02:30:15;18.30;99.90
35111;DHT22;21290;50.158;8.658;2023-07-29T02:32:41;18.30;99.90
35111;DHT22;21290;50.158;8.658;2023-07-29T02:35:08;18.30;99.90
35111;DHT22;21290;50.158;8.658;2023-07-29T02:37:36;18.30;99.90
35111;DHT22;21290;50.158;8.658;2023-07-29T02:40:03;18.30;99.90
35111;DHT22;21290;50.158;8.658;2023-07-29T02:42:30;18.30;99.90
35111;DHT22;21290;50.158;8.658;2023-07-29T02:44:57;18.30;99.90
35111;DHT22;21290;50.158;8.658;2023-07-29T02:47:23;18.30;99.90
35111;DHT22;21290;50.158;8.658;2023-07-29T02:49:50;18.30;99.90
35111;DHT22;21290;50.158;8.658;2023-07-29T02:52:17;18.20;99.90
35111;DHT22;21290;50.158;8.658;2023-07-29T02:54:43;18.20;99.90
35111;DHT22;21290;50.158;8.658;2023-07-29T02:57:10;18.20;99.90
35111;DHT22;21290;50.158;8.658;2023-07-29T02:59:36;18.20;99.90
35111;DHT22;21290;50.158;8.658;2023-07-29T03:02:03;18.20;99.90
35111;DHT22;21290;50.158;8.658;2023-07-29T03:04:30;18.10;99.90
35111;DHT22;21290;50.158;8.658;2023-07-29T03:06:59;18.10;99.90
35111;DHT22;21290;50.158;8.658;2023-07-29T03:09:26;18.20;99.90
35111;DHT22;21290;50.158;8.658;2023-07-29T03:11:53;18.10;99.90
35111;DHT22;21290;50.158;8.658;2023-07-29T03:14:21;18.10;99.90
35111;DHT22;21290;50.158;8.658;2023-07-29T03:16:47;18.10;99.90
35111;DHT22;21290;50.158;8.658;2023-07-29T03:19:15;18.10;99.90
35111;DHT22;21290;50.158;8.658;2023-07-29T03:21:41;18.10;99.90
35111;DHT22;21290;50.158;8.658;2023-07-29T03:24:08;18.10;99.90
35111;DHT22;21290;50.158;8.658;2023-07-29T03:26:35;18.10;99.90
35111;DHT22;21290;50.158;8.658;2023-07-29T03:29:02;18.10;99.90
35111;DHT22;21290;50.158;8.658;2023-07-29T03:31:28;18.10;99.90
35111;DHT22;21290;50.158;8.658;2023-07-29T03:33:55;18.10;99.90
35111;DHT22;21290;50.158;8.658;2023-07-29T03:36:22;18.10;99.90
35111;DHT22;21290;50.158;8.658;2023-07-29T03:38:48;18.10;99.90
35111;DHT22;21290;50.158;8.658;2023-07-29T03:41:15;18.10;99.90
35111;DHT22;21290;50.158;8.658;2023-07-29T03:43:41;18.10;99.90
35111;DHT22;21290;50.158;8.658;2023-07-29T03:46:08;18.10;99.90
35111;DHT22;21290;50.158;8.658;2023-07-29T03:48:38;18.10;99.90
35111;DHT22;21290;50.158;8.658;2023-07-29T03:51:04;18.10;99.90
35111;DHT22;21290;50.158;8.658;2023-07-29T03:53:31;18.10;99.90
35111;DHT22;21290;50.158;8.658;2023-07-29T03:55:58;18.10;99.90
35111;DHT22;21290;50.158;8.658;2023-07-29T03:58:24;18.10;99.90
35111;DHT22;21290;50.158;8.658;2023-07-29T04:00:51;18.10;99.90
35111;DHT22;21290;50.158;8.658;2023-07-29T04:03:17;18.10;99.90
35111;DHT22;21290;50.158;8.658;2023-07-29T04:05:44;18.10;99.90
35111;DHT22;21290;50.158;8.658;2023-07-29T04:08:11;18.10;99.90
35111;DHT22;21290;50.158;8.658;2023-07-29T04:10:38;18.10;99.90
35111;DHT22;21290;50.158;8.658;2023-07-29T04:13:04;18.10;99.90
35111;DHT22;21290;50.158;8.658;2023-07-29T04:15:31;18.10;99.90
35111;DHT22;21290;50.158;8.658;2023-07-29T04:17:58;18.10;99.90
35111;DHT22;21290;50.158;8.658;2023-07-29T04:20:24;18.10;99.90
35111;DHT22;21290;50.158;8.658;2023-07-29T04:22:51;18.10;99.90
35111;DHT22;21290;50.158;8.658;2023-07-29T04:25:18;18.10;99.90
35111;DHT22;21290;50.158;8.658;2023-07-29T04:27:45;18.10;99.90
35111;DHT22;21290;50.158;8.658;2023-07-29T04:30:11;18.20;99.90
35111;DHT22;21290;50.158;8.658;2023-07-29T04:32:38;18.20;99.90
35111;DHT22;21290;50.158;8.658;2023-07-29T04:35:05;18.10;99.90
35111;DHT22;21290;50.158;8.658;2023-07-29T04:37:32;18.10;99.90
35111;DHT22;21290;50.158;8.658;2023-07-29T04:39:58;18.20;99.90
35111;DHT22;21290;50.158;8.658;2023-07-29T04:42:26;18.20;99.90
35111;DHT22;21290;50.158;8.658;2023-07-29T04:44:53;18.10;99.90
35111;DHT22;21290;50.158;8.658;2023-07-29T04:47:19;18.10;99.90
35111;DHT22;21290;50.158;8.658;2023-07-29T04:49:46;18.10;99.90
35111;DHT22;21290;50.158;8.658;2023-07-29T04:52:13;18.20;99.90
35111;DHT22;21290;50.158;8.658;2023-07-29T04:54:39;18.20;99.90
35111;DHT22;21290;50.158;8.658;2023-07-29T04:57:06;18.20;99.90
35111;DHT22;21290;50.158;8.658;2023-07-29T04:59:32;18.20;99.90
35111;DHT22;21290;50.158;8.658;2023-07-29T05:01:59;18.20;99.90
35111;DHT22;21290;50.158;8.658;2023-07-29T05:04:26;18.20;99.90
35111;DHT22;21290;50.158;8.658;2023-07-29T05:06:52;18.20;99.90
35111;DHT22;21290;50.158;8.658;2023-07-29T05:09:19;18.20;99.90
35111;DHT22;21290;50.158;8.658;2023-07-29T05:11:46;18.20;99.90
35111;DHT22;21290;50.158;8.658;2023-07-29T05:14:14;18.20;99.90
35111;DHT22;21290;50.158;8.658;2023-07-29T05:16:41;18.20;99.90
35111;DHT22;21290;50.158;8.658;2023-07-29T05:19:08;18.20;99.90
35111;DHT22;21290;50.158;8.658;2023-07-29T05:21:36;18.20;99.90
35111;DHT22;21290;50.158;8.658;2023-07-29T05:24:03;18.30;99.90
35111;DHT22;21290;50.158;8.658;2023-07-29T05:26:30;18.30;99.90
35111;DHT22;21290;50.158;8.658;2023-07-29T05:28:56;18.20;99.90
35111;DHT22;21290;50.158;8.658;2023-07-29T05:31:23;18.20;99.90
35111;DHT22;21290;50.158;8.658;2023-07-29T05:33:50;18.20;99.90
35111;DHT22;21290;50.158;8.658;2023-07-29T05:36:16;18.30;99.90
35111;DHT22;21290;50.158;8.658;2023-07-29T05:38:43;18.20;99.90
35111;DHT22;21290;50.158;8.658;2023-07-29T05:41:10;18.30;99.90
35111;DHT22;21290;50.158;8.658;2023-07-29T05:43:37;18.30;99.90
35111;DHT22;21290;50.158;8.658;2023-07-29T05:46:03;18.30;99.90
35111;DHT22;21290;50.158;8.658;2023-07-29T05:48:30;18.30;99.90
35111;DHT22;21290;50.158;8.658;2023-07-29T05:50:57;18.30;99.90
35111;DHT22;21290;50.158;8.658;2023-07-29T05:53:23;18.30;99.90
35111;DHT22;21290;50.158;8.658;2023-07-29T05:55:50;18.30;99.90
35111;DHT22;21290;50.158;8.658;2023-07-29T05:58:17;18.30;99.90
35111;DHT22;21290;50.158;8.658;2023-07-29T06:00:43;18.30;99.90
35111;DHT22;21290;50.158;8.658;2023-07-29T06:03:10;18.30;99.90
35111;DHT22;21290;50.158;8.658;2023-07-29T06:05:37;18.40;99.90
35111;DHT22;21290;50.158;8.658;2023-07-29T06:08:03;18.40;99.90
35111;DHT22;21290;50.158;8.658;2023-07-29T06:10:30;18.40;99.90
35111;DHT22;21290;50.158;8.658;2023-07-29T06:12:57;18.40;99.90
35111;DHT22;21290;50.158;8.658;2023-07-29T06:15:23;18.40;99.90
35111;DHT22;21290;50.158;8.658;2023-07-29T06:17:50;18.40;99.90
35111;DHT22;21290;50.158;8.658;2023-07-29T06:20:20;18.40;99.90
35111;DHT22;21290;50.158;8.658;2023-07-29T06:22:46;18.50;99.90
35111;DHT22;21290;50.158;8.658;2023-07-29T06:25:13;18.50;99.90
35111;DHT22;21290;50.158;8.658;2023-07-29T06:27:40;18.60;99.90
35111;DHT22;21290;50.158;8.658;2023-07-29T06:30:07;18.50;99.90
35111;DHT22;21290;50.158;8.658;2023-07-29T06:32:34;18.50;99.90
35111;DHT22;21290;50.158;8.658;2023-07-29T06:35:01;18.40;99.90
35111;DHT22;21290;50.158;8.658;2023-07-29T06:37:27;18.40;99.90
35111;DHT22;21290;50.158;8.658;2023-07-29T06:39:54;18.30;99.90
35111;DHT22;21290;50.158;8.658;2023-07-29T06:42:21;18.30;99.90
35111;DHT22;21290;50.158;8.658;2023-07-29T06:44:47;18.20;99.90
35111;DHT22;21290;50.158;8.658;2023-07-29T06:47:14;18.20;99.90
35111;DHT22;21290;50.158;8.658;2023-07-29T06:49:41;18.30;99.90
35111;DHT22;21290;50.158;8.658;2023-07-29T06:52:07;18.20;99.90
35111;DHT22;21290;50.158;8.658;2023-07-29T06:54:34;18.20;99.90
35111;DHT22;21290;50.158;8.658;2023-07-29T06:57:01;18.20;99.90
35111;DHT22;21290;50.158;8.658;2023-07-29T06:59:27;18.20;99.90
35111;DHT22;21290;50.158;8.658;2023-07-29T07:01:54;18.20;99.90
35111;DHT22;21290;50.158;8.658;2023-07-29T07:04:21;18.20;99.90
35111;DHT22;21290;50.158;8.658;2023-07-29T07:06:47;18.20;99.90
35111;DHT22;21290;50.158;8.658;2023-07-29T07:09:14;18.20;99.90
35111;DHT22;21290;50.158;8.658;2023-07-29T07:11:41;18.20;99.90
35111;DHT22;21290;50.158;8.658;2023-07-29T07:14:07;18.20;99.90
35111;DHT22;21290;50.158;8.658;2023-07-29T07:16:34;18.20;99.90
35111;DHT22;21290;50.158;8.658;2023-07-29T07:19:03;18.20;99.90
35111;DHT22;21290;50.158;8.658;2023-07-29T07:21:30;18.20;99.90
35111;DHT22;21290;50.158;8.658;2023-07-29T07:23:56;18.20;99.90
35111;DHT22;21290;50.158;8.658;2023-07-29T07:26:23;18.20;99.90
35111;DHT22;21290;50.158;8.658;2023-07-29T07:28:50;18.30;99.90
35111;DHT22;21290;50.158;8.658;2023-07-29T07:31:17;18.30;99.90
35111;DHT22;21290;50.158;8.658;2023-07-29T07:33:46;18.40;99.90
35111;DHT22;21290;50.158;8.658;2023-07-29T07:36:13;18.40;99.90
35111;DHT22;21290;50.158;8.658;2023-07-29T07:38:39;18.50;99.90
35111;DHT22;21290;50.158;8.658;2023-07-29T07:41:06;18.50;99.90
35111;DHT22;21290;50.158;8.658;2023-07-29T07:43:33;18.50;99.90
35111;DHT22;21290;50.158;8.658;2023-07-29T07:46:01;18.60;99.90
35111;DHT22;21290;50.158;8.658;2023-07-29T07:48:28;18.60;99.90
35111;DHT22;21290;50.158;8.658;2023-07-29T07:50:54;18.70;99.90
35111;DHT22;21290;50.158;8.658;2023-07-29T07:53:21;18.70;99.90
35111;DHT22;21290;50.158;8.658;2023-07-29T07:55:48;18.80;99.90
35111;DHT22;21290;50.158;8.658;2023-07-29T07:58:14;18.80;99.90
35111;DHT22;21290;50.158;8.658;2023-07-29T08:00:41;18.80;99.90
35111;DHT22;21290;50.158;8.658;2023-07-29T08:03:08;18.90;99.90
35111;DHT22;21290;50.158;8.658;2023-07-29T08:05:34;18.90;99.90
35111;DHT22;21290;50.158;8.658;2023-07-29T08:08:01;19.00;99.90
35111;DHT22;21290;50.158;8.658;2023-07-29T08:10:28;19.10;99.90
35111;DHT22;21290;50.158;8.658;2023-07-29T08:12:54;19.10;99.90
35111;DHT22;21290;50.158;8.658;2023-07-29T08:15:21;19.10;99.90
35111;DHT22;21290;50.158;8.658;2023-07-29T08:17:48;19.10;99.90
35111;DHT22;21290;50.158;8.658;2023-07-29T08:20:15;19.20;99.90
35111;DHT22;21290;50.158;8.658;2023-07-29T08:22:41;19.50;99.90
35111;DHT22;21290;50.158;8.658;2023-07-29T08:25:08;20.00;99.90
35111;DHT22;21290;50.158;8.658;2023-07-29T08:27:35;20.70;99.90
35111;DHT22;21290;50.158;8.658;2023-07-29T08:30:01;21.20;99.90
35111;DHT22;21290;50.158;8.658;2023-07-29T08:32:28;21.50;99.90
35111;DHT22;21290;50.158;8.658;2023-07-29T08:34:55;21.40;99.90
35111;DHT22;21290;50.158;8.658;2023-07-29T08:37:22;21.50;99.90
35111;DHT22;21290;50.158;8.658;2023-07-29T08:39:48;22.00;99.90
35111;DHT22;21290;50.158;8.658;2023-07-29T08:42:19;22.20;99.90
35111;DHT22;21290;50.158;8.658;2023-07-29T08:44:49;22.60;99.90
35111;DHT22;21290;50.158;8.658;2023-07-29T08:47:16;22.60;99.90
35111;DHT22;21290;50.158;8.658;2023-07-29T08:49:44;22.60;99.90
35111;DHT22;21290;50.158;8.658;2023-07-29T08:52:12;22.80;99.90
35111;DHT22;21290;50.158;8.658;2023-07-29T08:54:40;23.70;99.90
35111;DHT22;21290;50.158;8.658;2023-07-29T08:57:07;24.50;99.90
35111;DHT22;21290;50.158;8.658;2023-07-29T08:59:33;25.40;99.90
35111;DHT22;21290;50.158;8.658;2023-07-29T09:02:00;26.20;99.90
35111;DHT22;21290;50.158;8.658;2023-07-29T09:04:27;26.70;99.90
35111;DHT22;21290;50.158;8.658;2023-07-29T09:06:55;27.50;99.90
35111;DHT22;21290;50.158;8.658;2023-07-29T09:09:23;28.70;99.90
35111;DHT22;21290;50.158;8.658;2023-07-29T09:11:49;30.00;99.90
35111;DHT22;21290;50.158;8.658;2023-07-29T09:14:16;30.30;99.90
35111;DHT22;21290;50.158;8.658;2023-07-29T09:16:43;30.30;99.90
35111;DHT22;21290;50.158;8.658;2023-07-29T09:19:10;30.60;99.90
35111;DHT22;21290;50.158;8.658;2023-07-29T09:21:40;31.50;99.90
35111;DHT22;21290;50.158;8.658;2023-07-29T09:24:07;31.30;99.90
35111;DHT22;21290;50.158;8.658;2023-07-29T09:26:35;31.30;99.70
35111;DHT22;21290;50.158;8.658;2023-07-29T09:29:03;31.40;99.90
35111;DHT22;21290;50.158;8.658;2023-07-29T09:31:29;31.30;99.50
35111;DHT22;21290;50.158;8.658;2023-07-29T09:34:01;31.60;98.60
35111;DHT22;21290;50.158;8.658;2023-07-29T09:36:30;31.10;99.90
35111;DHT22;21290;50.158;8.658;2023-07-29T09:38:58;30.80;99.90
35111;DHT22;21290;50.158;8.658;2023-07-29T09:41:26;30.40;99.70
35111;DHT22;21290;50.158;8.658;2023-07-29T09:44:00;29.80;99.90
35111;DHT22;21290;50.158;8.658;2023-07-29T09:46:37;29.60;99.90
35111;DHT22;21290;50.158;8.658;2023-07-29T09:49:06;28.60;99.90
35111;DHT22;21290;50.158;8.658;2023-07-29T09:51:38;28.00;99.90
35111;DHT22;21290;50.158;8.658;2023-07-29T09:54:05;27.70;99.90
35111;DHT22;21290;50.158;8.658;2023-07-29T09:56:33;27.40;99.90
35111;DHT22;21290;50.158;8.658;2023-07-29T09:59:00;28.70;99.90
35111;DHT22;21290;50.158;8.658;2023-07-29T10:01:31;29.60;99.90
35111;DHT22;21290;50.158;8.658;2023-07-29T10:03:58;28.70;99.90
35111;DHT22;21290;50.158;8.658;2023-07-29T10:06:27;27.90;99.90
35111;DHT22;21290;50.158;8.658;2023-07-29T10:08:54;27.60;99.90
35111;DHT22;21290;50.158;8.658;2023-07-29T10:11:21;28.30;99.90
35111;DHT22;21290;50.158;8.658;2023-07-29T10:13:48;30.00;99.90
35111;DHT22;21290;50.158;8.658;2023-07-29T10:16:32;31.10;98.30
35111;DHT22;21290;50.158;8.658;2023-07-29T10:19:01;29.80;99.50
35111;DHT22;21290;50.158;8.658;2023-07-29T10:21:29;29.80;99.90
35111;DHT22;21290;50.158;8.658;2023-07-29T10:24:01;30.40;98.90
35111;DHT22;21290;50.158;8.658;2023-07-29T10:26:31;31.10;98.40
35111;DHT22;21290;50.158;8.658;2023-07-29T10:28:59;32.00;97.30
35111;DHT22;21290;50.158;8.658;2023-07-29T10:31:32;31.50;96.80
35111;DHT22;21290;50.158;8.658;2023-07-29T10:33:59;31.10;97.70
35111;DHT22;21290;50.158;8.658;2023-07-29T10:36:26;30.80;97.10
35111;DHT22;21290;50.158;8.658;2023-07-29T10:38:53;30.60;97.10
35111;DHT22;21290;50.158;8.658;2023-07-29T10:41:20;29.80;98.60
35111;DHT22;21290;50.158;8.658;2023-07-29T10:43:46;29.00;99.20
35111;DHT22;21290;50.158;8.658;2023-07-29T10:46:21;28.10;99.90
35111;DHT22;21290;50.158;8.658;2023-07-29T10:48:56;27.00;99.90
35111;DHT22;21290;50.158;8.658;2023-07-29T10:51:29;26.40;99.90
35111;DHT22;21290;50.158;8.658;2023-07-29T10:54:09;26.30;99.90
35111;DHT22;21290;50.158;8.658;2023-07-29T10:56:40;26.20;99.90
35111;DHT22;21290;50.158;8.658;2023-07-29T11:01:57;25.90;99.90
35111;DHT22;21290;50.158;8.658;2023-07-29T11:04:26;25.50;99.90
35111;DHT22;21290;50.158;8.658;2023-07-29T11:12:52;24.70;99.90
35111;DHT22;21290;50.158;8.658;2023-07-29T11:15:28;24.20;99.90
35111;DHT22;21290;50.158;8.658;2023-07-29T11:17:59;23.90;99.90
35111;DHT22;21290;50.158;8.658;2023-07-29T11:20:28;24.40;99.90
35111;DHT22;21290;50.158;8.658;2023-07-29T11:22:56;25.50;99.90
35111;DHT22;21290;50.158;8.658;2023-07-29T11:25:27;26.20;99.90
35111;DHT22;21290;50.158;8.658;2023-07-29T11:27:56;27.30;99.90
35111;DHT22;21290;50.158;8.658;2023-07-29T11:30:23;28.40;99.90
35111;DHT22;21290;50.158;8.658;2023-07-29T11:32:54;28.70;99.90
35111;DHT22;21290;50.158;8.658;2023-07-29T11:35:22;30.00;99.90
35111;DHT22;21290;50.158;8.658;2023-07-29T11:37:50;31.20;98.30
35111;DHT22;21290;50.158;8.658;2023-07-29T11:40:18;31.80;96.40
35111;DHT22;21290;50.158;8.658;2023-07-29T11:42:46;32.00;95.20
35111;DHT22;21290;50.158;8.658;2023-07-29T11:45:14;31.60;93.90
35111;DHT22;21290;50.158;8.658;2023-07-29T11:47:43;31.70;94.00
35111;DHT22;21290;50.158;8.658;2023-07-29T11:50:12;32.40;93.70
35111;DHT22;21290;50.158;8.658;2023-07-29T11:52:43;32.60;93.10
35111;DHT22;21290;50.158;8.658;2023-07-29T11:55:11;32.50;92.50
35111;DHT22;21290;50.158;8.658;2023-07-29T11:57:39;32.10;92.30
35111;DHT22;21290;50.158;8.658;2023-07-29T12:00:08;31.90;92.20
35111;DHT22;21290;50.158;8.658;2023-07-29T12:02:41;31.80;92.60
35111;DHT22;21290;50.158;8.658;2023-07-29T12:05:09;31.70;92.80
35111;DHT22;21290;50.158;8.658;2023-07-29T12:07:39;31.30;93.30
35111;DHT22;21290;50.158;8.658;2023-07-29T12:10:06;31.10;94.50
35111;DHT22;21290;50.158;8.658;2023-07-29T12:12:33;30.90;93.90
35111;DHT22;21290;50.158;8.658;2023-07-29T12:15:04;30.50;94.20
35111;DHT22;21290;50.158;8.658;2023-07-29T12:17:32;30.10;94.10
35111;DHT22;21290;50.158;8.658;2023-07-29T12:20:08;29.40;94.70
35111;DHT22;21290;50.158;8.658;2023-07-29T12:22:35;28.70;95.80
35111;DHT22;21290;50.158;8.658;2023-07-29T12:25:03;28.20;96.80
35111;DHT22;21290;50.158;8.658;2023-07-29T12:27:30;27.90;97.60
35111;DHT22;21290;50.158;8.658;2023-07-29T12:30:01;27.40;98.00
35111;DHT22;21290;50.158;8.658;2023-07-29T12:32:30;27.20;98.80
35111;DHT22;21290;50.158;8.658;2023-07-29T12:34:57;26.90;99.80
35111;DHT22;21290;50.158;8.658;2023-07-29T12:37:31;26.90;99.90
35111;DHT22;21290;50.158;8.658;2023-07-29T12:39:58;27.20;99.40
35111;DHT22;21290;50.158;8.658;2023-07-29T12:42:25;27.60;99.30
35111;DHT22;21290;50.158;8.658;2023-07-29T12:44:51;27.70;98.30
35111;DHT22;21290;50.158;8.658;2023-07-29T12:47:18;27.50;98.10
35111;DHT22;21290;50.158;8.658;2023-07-29T12:49:45;27.50;99.00
35111;DHT22;21290;50.158;8.658;2023-07-29T12:52:11;27.70;99.50
35111;DHT22;21290;50.158;8.658;2023-07-29T12:54:38;27.70;98.80
35111;DHT22;21290;50.158;8.658;2023-07-29T12:57:06;27.70;98.30
35111;DHT22;21290;50.158;8.658;2023-07-29T12:59:33;27.50;98.20
35111;DHT22;21290;50.158;8.658;2023-07-29T13:01:59;27.10;98.30
35111;DHT22;21290;50.158;8.658;2023-07-29T13:04:26;26.80;98.20
35111;DHT22;21290;50.158;8.658;2023-07-29T13:06:52;26.60;99.40
35111;DHT22;21290;50.158;8.658;2023-07-29T13:09:19;26.50;98.80
35111;DHT22;21290;50.158;8.658;2023-07-29T13:11:46;26.30;98.70
35111;DHT22;21290;50.158;8.658;2023-07-29T13:14:13;26.10;98.70
35111;DHT22;21290;50.158;8.658;2023-07-29T13:16:39;25.90;98.80
35111;DHT22;21290;50.158;8.658;2023-07-29T13:19:07;25.80;99.30
35111;DHT22;21290;50.158;8.658;2023-07-29T13:21:33;25.60;99.90
35111;DHT22;21290;50.158;8.658;2023-07-29T13:24:00;25.60;99.90
35111;DHT22;21290;50.158;8.658;2023-07-29T13:26:27;25.60;99.90
35111;DHT22;21290;50.158;8.658;2023-07-29T13:28:53;25.80;99.90
35111;DHT22;21290;50.158;8.658;2023-07-29T13:31:22;26.30;99.80
35111;DHT22;21290;50.158;8.658;2023-07-29T13:33:48;26.70;99.30
35111;DHT22;21290;50.158;8.658;2023-07-29T13:36:15;27.10;98.80
35111;DHT22;21290;50.158;8.658;2023-07-29T13:38:42;27.30;98.50
35111;DHT22;21290;50.158;8.658;2023-07-29T13:41:08;27.50;97.90
35111;DHT22;21290;50.158;8.658;2023-07-29T13:43:35;27.60;97.30
35111;DHT22;21290;50.158;8.658;2023-07-29T13:46:01;27.80;97.50
35111;DHT22;21290;50.158;8.658;2023-07-29T13:48:28;27.60;96.80
35111;DHT22;21290;50.158;8.658;2023-07-29T13:50:55;27.60;96.90
35111;DHT22;21290;50.158;8.658;2023-07-29T13:53:21;27.70;97.20
35111;DHT22;21290;50.158;8.658;2023-07-29T13:55:48;27.80;96.20
35111;DHT22;21290;50.158;8.658;2023-07-29T13:58:17;27.70;96.70
35111;DHT22;21290;50.158;8.658;2023-07-29T14:00:44;27.70;96.30
35111;DHT22;21290;50.158;8.658;2023-07-29T14:03:10;27.40;96.60
35111;DHT22;21290;50.158;8.658;2023-07-29T14:05:37;27.30;97.00
35111;DHT22;21290;50.158;8.658;2023-07-29T14:08:04;27.20;96.50
35111;DHT22;21290;50.158;8.658;2023-07-29T14:10:30;27.20;96.30
35111;DHT22;21290;50.158;8.658;2023-07-29T14:12:57;27.20;95.90
35111;DHT22;21290;50.158;8.658;2023-07-29T14:15:23;27.10;96.20
35111;DHT22;21290;50.158;8.658;2023-07-29T14:17:50;27.20;96.00
35111;DHT22;21290;50.158;8.658;2023-07-29T14:20:17;27.20;95.90
35111;DHT22;21290;50.158;8.658;2023-07-29T14:22:47;27.20;95.10
35111;DHT22;21290;50.158;8.658;2023-07-29T14:25:14;27.10;95.50
35111;DHT22;21290;50.158;8.658;2023-07-29T14:27:41;27.10;95.10
35111;DHT22;21290;50.158;8.658;2023-07-29T14:30:08;27.00;95.30
35111;DHT22;21290;50.158;8.658;2023-07-29T14:32:34;27.00;95.80
35111;DHT22;21290;50.158;8.658;2023-07-29T14:35:01;26.80;96.00
35111;DHT22;21290;50.158;8.658;2023-07-29T14:37:31;26.70;96.10
35111;DHT22;21290;50.158;8.658;2023-07-29T14:39:58;26.50;95.80
35111;DHT22;21290;50.158;8.658;2023-07-29T14:42:25;26.40;95.40
35111;DHT22;21290;50.158;8.658;2023-07-29T14:44:51;26.30;95.40
35111;DHT22;21290;50.158;8.658;2023-07-29T14:47:18;26.40;96.10
35111;DHT22;21290;50.158;8.658;2023-07-29T14:49:45;26.50;96.10
35111;DHT22;21290;50.158;8.658;2023-07-29T14:52:11;26.60;95.20
35111;DHT22;21290;50.158;8.658;2023-07-29T14:54:38;26.60;95.10
35111;DHT22;21290;50.158;8.658;2023-07-29T14:57:06;26.50;94.30
35111;DHT22;21290;50.158;8.658;2023-07-29T14:59:33;26.50;94.50
35111;DHT22;21290;50.158;8.658;2023-07-29T15:02:00;26.60;94.80
35111;DHT22;21290;50.158;8.658;2023-07-29T15:04:26;26.60;94.80
35111;DHT22;21290;50.158;8.658;2023-07-29T15:06:53;26.60;94.40
35111;DHT22;21290;50.158;8.658;2023-07-29T15:09:20;26.60;94.20
35111;DHT22;21290;50.158;8.658;2023-07-29T15:11:47;26.60;94.50
35111;DHT22;21290;50.158;8.658;2023-07-29T15:14:13;26.60;94.10
35111;DHT22;21290;50.158;8.658;2023-07-29T15:16:40;26.60;94.30
35111;DHT22;21290;50.158;8.658;2023-07-29T15:19:07;26.70;94.50
35111;DHT22;21290;50.158;8.658;2023-07-29T15:21:34;26.70;94.30
35111;DHT22;21290;50.158;8.658;2023-07-29T15:24:00;26.70;94.30
35111;DHT22;21290;50.158;8.658;2023-07-29T15:26:27;26.80;94.00
35111;DHT22;21290;50.158;8.658;2023-07-29T15:28:54;26.70;93.60
35111;DHT22;21290;50.158;8.658;2023-07-29T15:31:21;26.70;93.60
35111;DHT22;21290;50.158;8.658;2023-07-29T15:33:48;26.70;93.20
35111;DHT22;21290;50.158;8.658;2023-07-29T15:36:14;26.70;93.60
35111;DHT22;21290;50.158;8.658;2023-07-29T15:38:41;26.70;93.80
35111;DHT22;21290;50.158;8.658;2023-07-29T15:41:08;26.80;93.70
35111;DHT22;21290;50.158;8.658;2023-07-29T15:43:35;26.90;92.90
35111;DHT22;21290;50.158;8.658;2023-07-29T15:46:01;26.90;92.90